sensor_id;sensor_type;location;lat;lon;timestamp;temperature;humidity
582;DHT22;277;50.074;8.436;2023-05-21T00:01:31;16.80;99.90
582;DHT22;277;50.074;8.436;2023-05-21T00:03:58;16.80;99.90
582;DHT22;277;50.074;8.436;2023-05-21T00:06:27;16.80;99.90
582;DHT22;277;50.074;8.436;2023-05-21T00:08:56;16.80;99.90
582;DHT22;277;50.074;8.436;2023-05-21T00:11:24;16.80;99.90
582;DHT22;277;50.074;8.436;2023-05-21T00:13:52;16.80;99.90
582;DHT22;277;50.074;8.436;2023-05-21T00:16:20;16.80;99.90
582;DHT22;277;50.074;8.436;2023-05-21T00:18:48;16.80;99.90
582;DHT22;277;50.074;8.436;2023-05-21T00:21:16;16.80;99.90
582;DHT22;277;50.074;8.436;2023-05-21T00:23:48;16.80;99.90
582;DHT22;277;50.074;8.436;2023-05-21T00:26:17;16.80;99.90
582;DHT22;277;50.074;8.436;2023-05-21T00:28:45;16.70;99.90
582;DHT22;277;50.074;8.436;2023-05-21T00:31:13;16.70;99.90
582;DHT22;277;50.074;8.436;2023-05-21T00:33:41;16.70;99.90
582;DHT22;277;50.074;8.436;2023-05-21T00:36:09;16.70;99.90
582;DHT22;277;50.074;8.436;2023-05-21T00:38:40;16.70;99.90
582;DHT22;277;50.074;8.436;2023-05-21T00:41:09;16.70;99.90
582;DHT22;277;50.074;8.436;2023-05-21T00:43:39;16.70;99.90
582;DHT22;277;50.074;8.436;2023-05-21T00:46:10;16.70;99.90
582;DHT22;277;50.074;8.436;2023-05-21T00:48:39;16.70;99.90
582;DHT22;277;50.074;8.436;2023-05-21T00:51:07;16.70;99.90
582;DHT22;277;50.074;8.436;2023-05-21T00:53:35;16.70;99.90
582;DHT22;277;50.074;8.436;2023-05-21T00:56:04;16.70;99.90
582;DHT22;277;50.074;8.436;2023-05-21T00:58:33;16.70;99.90
582;DHT22;277;50.074;8.436;2023-05-21T01:01:04;16.70;99.90
582;DHT22;277;50.074;8.436;2023-05-21T01:03:33;16.70;99.90
582;DHT22;277;50.074;8.436;2023-05-21T01:06:04;16.70;99.90
582;DHT22;277;50.074;8.436;2023-05-21T01:08:33;16.70;99.90
582;DHT22;277;50.074;8.436;2023-05-21T01:11:02;16.70;99.90
582;DHT22;277;50.074;8.436;2023-05-21T01:13:33;16.70;99.90
582;DHT22;277;50.074;8.436;2023-05-21T01:16:05;16.70;99.90
582;DHT22;277;50.074;8.436;2023-05-21T01:18:34;16.70;99.90
582;DHT22;277;50.074;8.436;2023-05-21T01:21:04;16.70;99.90
582;DHT22;277;50.074;8.436;2023-05-21T01:23:34;16.70;99.90
582;DHT22;277;50.074;8.436;2023-05-21T01:26:02;16.70;99.90
582;DHT22;277;50.074;8.436;2023-05-21T01:28:30;16.70;99.90
582;DHT22;277;50.074;8.436;2023-05-21T01:31:03;16.70;99.90
582;DHT22;277;50.074;8.436;2023-05-21T01:34:00;16.70;99.90
582;DHT22;277;50.074;8.436;2023-05-21T01:36:34;16.70;99.90
582;DHT22;277;50.074;8.436;2023-05-21T01:39:14;16.70;99.90
582;DHT22;277;50.074;8.436;2023-05-21T01:41:44;16.80;99.90
582;DHT22;277;50.074;8.436;2023-05-21T01:44:15;16.70;99.90
582;DHT22;277;50.074;8.436;2023-05-21T01:46:45;16.80;99.90
582;DHT22;277;50.074;8.436;2023-05-21T01:49:24;16.80;99.90
582;DHT22;277;50.074;8.436;2023-05-21T01:52:01;16.80;99.90
582;DHT22;277;50.074;8.436;2023-05-21T01:54:31;16.80;99.90
582;DHT22;277;50.074;8.436;2023-05-21T01:56:59;16.80;99.90
582;DHT22;277;50.074;8.436;2023-05-21T01:59:27;16.80;99.90
582;DHT22;277;50.074;8.436;2023-05-21T02:01:55;16.90;99.90
582;DHT22;277;50.074;8.436;2023-05-21T02:04:23;16.90;99.90
582;DHT22;277;50.074;8.436;2023-05-21T02:06:51;16.90;99.90
582;DHT22;277;50.074;8.436;2023-05-21T02:09:20;16.90;99.90
582;DHT22;277;50.074;8.436;2023-05-21T02:11:49;16.90;99.90
582;DHT22;277;50.074;8.436;2023-05-21T02:14:17;16.90;99.90
582;DHT22;277;50.074;8.436;2023-05-21T02:16:46;16.90;99.90
582;DHT22;277;50.074;8.436;2023-05-21T02:19:14;17.00;99.90
582;DHT22;277;50.074;8.436;2023-05-21T02:21:42;16.90;99.90
582;DHT22;277;50.074;8.436;2023-05-21T02:24:10;17.00;99.90
582;DHT22;277;50.074;8.436;2023-05-21T02:26:37;16.90;99.90
582;DHT22;277;50.074;8.436;2023-05-21T02:29:07;17.00;99.90
582;DHT22;277;50.074;8.436;2023-05-21T02:31:35;17.00;99.90
582;DHT22;277;50.074;8.436;2023-05-21T02:34:03;17.00;99.90
582;DHT22;277;50.074;8.436;2023-05-21T02:36:31;17.00;99.90
582;DHT22;277;50.074;8.436;2023-05-21T02:38:59;17.00;99.90
582;DHT22;277;50.074;8.436;2023-05-21T02:41:27;17.00;99.90
582;DHT22;277;50.074;8.436;2023-05-21T02:43:55;17.00;99.90
582;DHT22;277;50.074;8.436;2023-05-21T02:46:24;17.00;99.90
582;DHT22;277;50.074;8.436;2023-05-21T02:48:52;17.10;99.90
582;DHT22;277;50.074;8.436;2023-05-21T02:51:20;17.10;99.90
582;DHT22;277;50.074;8.436;2023-05-21T02:53:48;17.10;99.90
582;DHT22;277;50.074;8.436;2023-05-21T02:56:16;17.10;99.90
582;DHT22;277;50.074;8.436;2023-05-21T02:58:44;17.10;99.90
582;DHT22;277;50.074;8.436;2023-05-21T03:01:12;17.10;99.90
582;DHT22;277;50.074;8.436;2023-05-21T03:03:41;17.10;99.90
582;DHT22;277;50.074;8.436;2023-05-21T03:06:09;17.10;99.90
582;DHT22;277;50.074;8.436;2023-05-21T03:08:37;17.10;99.90
582;DHT22;277;50.074;8.436;2023-05-21T03:11:05;17.10;99.90
582;DHT22;277;50.074;8.436;2023-05-21T03:13:33;17.10;99.90
582;DHT22;277;50.074;8.436;2023-05-21T03:16:01;17.10;99.90
582;DHT22;277;50.074;8.436;2023-05-21T03:18:29;17.20;99.90
582;DHT22;277;50.074;8.436;2023-05-21T03:20:58;17.10;99.90
582;DHT22;277;50.074;8.436;2023-05-21T03:23:27;17.20;99.90
582;DHT22;277;50.074;8.436;2023-05-21T03:25:55;17.20;99.90
582;DHT22;277;50.074;8.436;2023-05-21T03:28:23;17.20;99.90
582;DHT22;277;50.074;8.436;2023-05-21T03:30:51;17.10;99.90
582;DHT22;277;50.074;8.436;2023-05-21T03:33:21;17.10;99.90
582;DHT22;277;50.074;8.436;2023-05-21T03:35:49;17.20;99.90
582;DHT22;277;50.074;8.436;2023-05-21T03:38:18;17.10;99.90
582;DHT22;277;50.074;8.436;2023-05-21T03:40:46;17.10;99.90
582;DHT22;277;50.074;8.436;2023-05-21T03:43:14;17.20;99.90
582;DHT22;277;50.074;8.436;2023-05-21T03:45:42;17.10;99.90
582;DHT22;277;50.074;8.436;2023-05-21T03:48:10;17.20;99.90
582;DHT22;277;50.074;8.436;2023-05-21T03:50:38;17.20;99.90
582;DHT22;277;50.074;8.436;2023-05-21T03:53:07;17.20;99.90
582;DHT22;277;50.074;8.436;2023-05-21T03:55:37;17.20;99.90
582;DHT22;277;50.074;8.436;2023-05-21T03:58:05;17.20;99.90
582;DHT22;277;50.074;8.436;2023-05-21T04:00:33;17.20;99.90
582;DHT22;277;50.074;8.436;2023-05-21T04:03:03;17.20;99.90
582;DHT22;277;50.074;8.436;2023-05-21T04:05:33;17.20;99.90
582;DHT22;277;50.074;8.436;2023-05-21T04:08:01;17.30;99.90
582;DHT22;277;50.074;8.436;2023-05-21T04:10:29;17.30;99.90
582;DHT22;277;50.074;8.436;2023-05-21T04:12:58;17.20;99.90
582;DHT22;277;50.074;8.436;2023-05-21T04:15:26;17.20;99.90
582;DHT22;277;50.074;8.436;2023-05-21T04:17:54;17.20;99.90
582;DHT22;277;50.074;8.436;2023-05-21T04:20:22;17.20;99.90
582;DHT22;277;50.074;8.436;2023-05-21T04:22:50;17.20;99.90
582;DHT22;277;50.074;8.436;2023-05-21T04:25:18;17.30;99.90
582;DHT22;277;50.074;8.436;2023-05-21T04:27:47;17.20;99.90
582;DHT22;277;50.074;8.436;2023-05-21T04:30:17;17.20;99.90
582;DHT22;277;50.074;8.436;2023-05-21T04:32:45;17.20;99.90
582;DHT22;277;50.074;8.436;2023-05-21T04:35:13;17.20;99.90
582;DHT22;277;50.074;8.436;2023-05-21T04:37:41;17.30;99.90
582;DHT22;277;50.074;8.436;2023-05-21T04:40:12;17.30;99.90
582;DHT22;277;50.074;8.436;2023-05-21T04:42:43;17.30;99.90
582;DHT22;277;50.074;8.436;2023-05-21T04:45:12;17.40;99.90
582;DHT22;277;50.074;8.436;2023-05-21T04:47:41;17.40;99.90
582;DHT22;277;50.074;8.436;2023-05-21T04:50:10;17.40;99.90
582;DHT22;277;50.074;8.436;2023-05-21T04:52:38;17.40;99.90
582;DHT22;277;50.074;8.436;2023-05-21T04:55:07;17.50;99.90
582;DHT22;277;50.074;8.436;2023-05-21T04:57:35;17.50;99.90
582;DHT22;277;50.074;8.436;2023-05-21T05:00:04;17.50;99.90
582;DHT22;277;50.074;8.436;2023-05-21T05:02:32;17.60;99.90
582;DHT22;277;50.074;8.436;2023-05-21T05:05:02;17.60;99.90
582;DHT22;277;50.074;8.436;2023-05-21T05:07:30;17.70;99.90
582;DHT22;277;50.074;8.436;2023-05-21T05:09:58;17.70;99.90
582;DHT22;277;50.074;8.436;2023-05-21T05:12:26;17.80;99.90
582;DHT22;277;50.074;8.436;2023-05-21T05:14:54;17.80;99.90
582;DHT22;277;50.074;8.436;2023-05-21T05:17:22;17.80;99.90
582;DHT22;277;50.074;8.436;2023-05-21T05:19:50;17.90;99.90
582;DHT22;277;50.074;8.436;2023-05-21T05:22:20;18.00;99.90
582;DHT22;277;50.074;8.436;2023-05-21T05:24:48;18.00;99.90
582;DHT22;277;50.074;8.436;2023-05-21T05:27:15;18.10;99.90
582;DHT22;277;50.074;8.436;2023-05-21T05:29:44;18.10;99.90
582;DHT22;277;50.074;8.436;2023-05-21T05:32:12;18.20;99.90
582;DHT22;277;50.074;8.436;2023-05-21T05:34:40;18.30;99.90
582;DHT22;277;50.074;8.436;2023-05-21T05:37:09;18.30;99.90
582;DHT22;277;50.074;8.436;2023-05-21T05:39:38;18.40;99.90
582;DHT22;277;50.074;8.436;2023-05-21T05:42:07;18.60;99.90
582;DHT22;277;50.074;8.436;2023-05-21T05:44:35;18.60;99.90
582;DHT22;277;50.074;8.436;2023-05-21T05:47:03;18.70;99.90
582;DHT22;277;50.074;8.436;2023-05-21T05:49:34;18.80;99.90
582;DHT22;277;50.074;8.436;2023-05-21T05:52:03;18.90;99.90
582;DHT22;277;50.074;8.436;2023-05-21T05:54:31;18.90;99.90
582;DHT22;277;50.074;8.436;2023-05-21T05:57:01;19.00;99.90
582;DHT22;277;50.074;8.436;2023-05-21T05:59:29;19.00;99.90
582;DHT22;277;50.074;8.436;2023-05-21T06:01:59;19.00;99.90
582;DHT22;277;50.074;8.436;2023-05-21T06:04:27;19.10;99.90
582;DHT22;277;50.074;8.436;2023-05-21T06:06:55;19.10;99.90
582;DHT22;277;50.074;8.436;2023-05-21T06:09:24;19.20;99.90
582;DHT22;277;50.074;8.436;2023-05-21T06:11:52;19.30;99.90
582;DHT22;277;50.074;8.436;2023-05-21T06:14:21;19.30;99.90
582;DHT22;277;50.074;8.436;2023-05-21T06:16:49;19.30;99.90
582;DHT22;277;50.074;8.436;2023-05-21T06:19:17;19.30;99.90
582;DHT22;277;50.074;8.436;2023-05-21T06:21:45;19.30;99.90
582;DHT22;277;50.074;8.436;2023-05-21T06:24:13;19.20;99.90
582;DHT22;277;50.074;8.436;2023-05-21T06:26:41;19.20;99.90
582;DHT22;277;50.074;8.436;2023-05-21T06:29:09;19.20;99.90
582;DHT22;277;50.074;8.436;2023-05-21T06:31:42;19.20;99.90
582;DHT22;277;50.074;8.436;2023-05-21T06:34:10;19.20;99.90
582;DHT22;277;50.074;8.436;2023-05-21T06:36:38;19.20;99.90
582;DHT22;277;50.074;8.436;2023-05-21T06:39:06;19.20;99.90
582;DHT22;277;50.074;8.436;2023-05-21T06:41:34;19.30;99.90
582;DHT22;277;50.074;8.436;2023-05-21T06:44:03;19.40;99.90
582;DHT22;277;50.074;8.436;2023-05-21T06:46:31;19.40;99.90
582;DHT22;277;50.074;8.436;2023-05-21T06:49:01;19.40;99.90
582;DHT22;277;50.074;8.436;2023-05-21T06:51:28;19.40;99.90
582;DHT22;277;50.074;8.436;2023-05-21T06:53:56;19.40;99.90
582;DHT22;277;50.074;8.436;2023-05-21T06:56:24;19.30;99.90
582;DHT22;277;50.074;8.436;2023-05-21T06:58:53;19.30;99.90
582;DHT22;277;50.074;8.436;2023-05-21T07:01:21;19.30;99.90
582;DHT22;277;50.074;8.436;2023-05-21T07:03:49;19.40;99.90
582;DHT22;277;50.074;8.436;2023-05-21T07:06:18;19.30;99.90
582;DHT22;277;50.074;8.436;2023-05-21T07:08:46;19.30;99.90
582;DHT22;277;50.074;8.436;2023-05-21T07:11:15;19.30;99.90
582;DHT22;277;50.074;8.436;2023-05-21T07:13:43;19.40;99.90
582;DHT22;277;50.074;8.436;2023-05-21T07:16:11;19.40;99.90
582;DHT22;277;50.074;8.436;2023-05-21T07:18:39;19.40;99.90
582;DHT22;277;50.074;8.436;2023-05-21T07:21:07;19.40;99.90
582;DHT22;277;50.074;8.436;2023-05-21T07:23:36;19.50;99.90
582;DHT22;277;50.074;8.436;2023-05-21T07:26:04;19.60;99.90
582;DHT22;277;50.074;8.436;2023-05-21T07:28:32;19.80;99.90
582;DHT22;277;50.074;8.436;2023-05-21T07:31:00;19.90;99.90
582;DHT22;277;50.074;8.436;2023-05-21T07:33:28;20.10;99.90
582;DHT22;277;50.074;8.436;2023-05-21T07:35:56;20.20;99.90
582;DHT22;277;50.074;8.436;2023-05-21T07:38:24;20.30;99.90
582;DHT22;277;50.074;8.436;2023-05-21T07:40:53;20.40;99.90
582;DHT22;277;50.074;8.436;2023-05-21T07:43:22;20.40;99.90
582;DHT22;277;50.074;8.436;2023-05-21T07:45:50;20.50;99.90
582;DHT22;277;50.074;8.436;2023-05-21T07:48:18;20.60;99.90
582;DHT22;277;50.074;8.436;2023-05-21T07:50:46;20.80;99.90
582;DHT22;277;50.074;8.436;2023-05-21T07:53:15;21.00;99.90
582;DHT22;277;50.074;8.436;2023-05-21T07:55:43;21.20;99.90
582;DHT22;277;50.074;8.436;2023-05-21T07:58:15;21.40;99.90
582;DHT22;277;50.074;8.436;2023-05-21T08:00:46;21.60;99.90
582;DHT22;277;50.074;8.436;2023-05-21T08:03:14;21.60;99.90
582;DHT22;277;50.074;8.436;2023-05-21T08:05:43;21.60;99.90
582;DHT22;277;50.074;8.436;2023-05-21T08:08:14;21.60;99.90
582;DHT22;277;50.074;8.436;2023-05-21T08:10:43;21.70;99.90
582;DHT22;277;50.074;8.436;2023-05-21T08:13:11;21.80;99.90
582;DHT22;277;50.074;8.436;2023-05-21T08:15:40;22.00;99.90
582;DHT22;277;50.074;8.436;2023-05-21T08:18:08;22.20;99.90
582;DHT22;277;50.074;8.436;2023-05-21T08:20:37;22.50;99.90
582;DHT22;277;50.074;8.436;2023-05-21T08:23:05;22.80;99.90
582;DHT22;277;50.074;8.436;2023-05-21T08:25:33;22.90;99.90
582;DHT22;277;50.074;8.436;2023-05-21T08:28:02;22.90;99.90
582;DHT22;277;50.074;8.436;2023-05-21T08:30:30;22.80;99.90
582;DHT22;277;50.074;8.436;2023-05-21T08:32:59;22.80;99.90
582;DHT22;277;50.074;8.436;2023-05-21T08:35:28;22.80;99.90
582;DHT22;277;50.074;8.436;2023-05-21T08:37:55;22.80;99.90
582;DHT22;277;50.074;8.436;2023-05-21T08:40:24;22.90;99.90
582;DHT22;277;50.074;8.436;2023-05-21T08:42:52;23.10;99.90
582;DHT22;277;50.074;8.436;2023-05-21T08:45:21;23.30;99.90
582;DHT22;277;50.074;8.436;2023-05-21T08:47:56;23.40;99.90
582;DHT22;277;50.074;8.436;2023-05-21T08:50:27;23.50;99.90
582;DHT22;277;50.074;8.436;2023-05-21T08:52:55;23.40;99.90
582;DHT22;277;50.074;8.436;2023-05-21T08:55:24;23.50;99.90
582;DHT22;277;50.074;8.436;2023-05-21T08:57:53;23.30;99.90
582;DHT22;277;50.074;8.436;2023-05-21T09:00:21;23.50;99.90
582;DHT22;277;50.074;8.436;2023-05-21T09:02:49;23.60;99.90
582;DHT22;277;50.074;8.436;2023-05-21T09:05:21;23.80;99.90
582;DHT22;277;50.074;8.436;2023-05-21T09:07:58;23.80;99.90
582;DHT22;277;50.074;8.436;2023-05-21T09:10:32;24.10;99.90
582;DHT22;277;50.074;8.436;2023-05-21T09:13:02;24.10;99.90
582;DHT22;277;50.074;8.436;2023-05-21T09:15:30;24.40;99.90
582;DHT22;277;50.074;8.436;2023-05-21T09:17:58;24.40;99.90
582;DHT22;277;50.074;8.436;2023-05-21T09:20:27;24.50;99.90
582;DHT22;277;50.074;8.436;2023-05-21T09:22:56;24.40;99.90
582;DHT22;277;50.074;8.436;2023-05-21T09:25:29;24.30;99.90
582;DHT22;277;50.074;8.436;2023-05-21T09:27:58;24.20;99.90
582;DHT22;277;50.074;8.436;2023-05-21T09:30:26;23.90;99.90
582;DHT22;277;50.074;8.436;2023-05-21T09:32:59;23.70;99.90
582;DHT22;277;50.074;8.436;2023-05-21T09:35:27;23.60;99.90
582;DHT22;277;50.074;8.436;2023-05-21T09:37:56;23.60;99.90
582;DHT22;277;50.074;8.436;2023-05-21T09:40:24;23.70;99.90
582;DHT22;277;50.074;8.436;2023-05-21T09:42:53;23.80;99.90
582;DHT22;277;50.074;8.436;2023-05-21T09:45:22;23.70;99.90
582;DHT22;277;50.074;8.436;2023-05-21T09:47:52;23.50;99.90
582;DHT22;277;50.074;8.436;2023-05-21T09:50:21;23.60;99.90
582;DHT22;277;50.074;8.436;2023-05-21T09:52:50;23.90;99.90
582;DHT22;277;50.074;8.436;2023-05-21T09:55:21;24.10;99.90
582;DHT22;277;50.074;8.436;2023-05-21T09:57:50;24.20;99.90
582;DHT22;277;50.074;8.436;2023-05-21T10:00:19;24.30;99.90
582;DHT22;277;50.074;8.436;2023-05-21T10:02:48;24.50;99.90
582;DHT22;277;50.074;8.436;2023-05-21T10:05:17;24.90;99.90
582;DHT22;277;50.074;8.436;2023-05-21T10:07:49;25.20;99.90
582;DHT22;277;50.074;8.436;2023-05-21T10:10:20;25.60;99.90
582;DHT22;277;50.074;8.436;2023-05-21T10:12:53;25.90;99.90
582;DHT22;277;50.074;8.436;2023-05-21T10:15:23;26.10;99.90
582;DHT22;277;50.074;8.436;2023-05-21T10:17:53;26.20;99.90
582;DHT22;277;50.074;8.436;2023-05-21T10:20:22;26.20;99.90
582;DHT22;277;50.074;8.436;2023-05-21T10:22:50;26.40;99.90
582;DHT22;277;50.074;8.436;2023-05-21T10:25:20;26.60;99.90
582;DHT22;277;50.074;8.436;2023-05-21T10:27:49;26.70;99.90
582;DHT22;277;50.074;8.436;2023-05-21T10:30:20;26.90;99.90
582;DHT22;277;50.074;8.436;2023-05-21T10:32:48;26.90;99.90
582;DHT22;277;50.074;8.436;2023-05-21T10:35:17;27.00;99.90
582;DHT22;277;50.074;8.436;2023-05-21T10:37:45;27.00;99.90
582;DHT22;277;50.074;8.436;2023-05-21T10:40:13;27.20;99.90
582;DHT22;277;50.074;8.436;2023-05-21T10:46:03;27.10;99.90
582;DHT22;277;50.074;8.436;2023-05-21T10:48:57;27.20;99.90
582;DHT22;277;50.074;8.436;2023-05-21T10:51:28;26.90;99.90
582;DHT22;277;50.074;8.436;2023-05-21T10:54:26;26.90;99.90
582;DHT22;277;50.074;8.436;2023-05-21T10:57:06;26.90;99.90
582;DHT22;277;50.074;8.436;2023-05-21T10:59:41;27.10;99.90
582;DHT22;277;50.074;8.436;2023-05-21T11:02:12;27.10;99.90
582;DHT22;277;50.074;8.436;2023-05-21T11:04:43;27.20;99.90
582;DHT22;277;50.074;8.436;2023-05-21T11:07:11;27.40;99.90
582;DHT22;277;50.074;8.436;2023-05-21T11:09:39;27.30;99.90
582;DHT22;277;50.074;8.436;2023-05-21T11:12:07;27.20;99.90
582;DHT22;277;50.074;8.436;2023-05-21T11:14:36;27.30;99.90
582;DHT22;277;50.074;8.436;2023-05-21T11:17:15;27.30;99.90
582;DHT22;277;50.074;8.436;2023-05-21T11:19:43;27.00;99.90
582;DHT22;277;50.074;8.436;2023-05-21T11:22:23;27.10;99.90
582;DHT22;277;50.074;8.436;2023-05-21T11:24:52;26.70;99.90
582;DHT22;277;50.074;8.436;2023-05-21T11:27:30;26.80;99.90
582;DHT22;277;50.074;8.436;2023-05-21T11:30:03;27.00;99.90
582;DHT22;277;50.074;8.436;2023-05-21T11:32:36;27.30;99.90
582;DHT22;277;50.074;8.436;2023-05-21T11:35:05;27.40;99.90
582;DHT22;277;50.074;8.436;2023-05-21T11:37:34;27.50;99.90
582;DHT22;277;50.074;8.436;2023-05-21T11:40:17;27.80;99.90
582;DHT22;277;50.074;8.436;2023-05-21T11:42:49;28.20;99.90
582;DHT22;277;50.074;8.436;2023-05-21T11:45:18;28.50;99.90
582;DHT22;277;50.074;8.436;2023-05-21T11:47:48;28.50;99.90
582;DHT22;277;50.074;8.436;2023-05-21T11:50:17;28.10;99.90
582;DHT22;277;50.074;8.436;2023-05-21T11:52:45;28.00;99.90
582;DHT22;277;50.074;8.436;2023-05-21T11:55:13;28.10;99.90
582;DHT22;277;50.074;8.436;2023-05-21T11:57:42;28.20;99.90
582;DHT22;277;50.074;8.436;2023-05-21T12:00:14;28.30;99.90
582;DHT22;277;50.074;8.436;2023-05-21T12:02:44;28.10;99.90
582;DHT22;277;50.074;8.436;2023-05-21T12:05:14;28.20;99.90
582;DHT22;277;50.074;8.436;2023-05-21T12:07:45;28.00;99.90
582;DHT22;277;50.074;8.436;2023-05-21T12:10:15;28.20;99.90
582;DHT22;277;50.074;8.436;2023-05-21T12:12:43;28.30;99.90
582;DHT22;277;50.074;8.436;2023-05-21T12:15:22;28.30;99.90
582;DHT22;277;50.074;8.436;2023-05-21T12:17:50;28.40;99.90
582;DHT22;277;50.074;8.436;2023-05-21T12:20:21;28.60;99.90
582;DHT22;277;50.074;8.436;2023-05-21T12:22:49;28.50;99.90
582;DHT22;277;50.074;8.436;2023-05-21T12:25:18;28.90;99.90
582;DHT22;277;50.074;8.436;2023-05-21T12:27:47;28.90;99.20
582;DHT22;277;50.074;8.436;2023-05-21T12:30:16;29.10;98.20
582;DHT22;277;50.074;8.436;2023-05-21T12:32:44;29.10;97.00
582;DHT22;277;50.074;8.436;2023-05-21T12:35:23;29.30;97.30
582;DHT22;277;50.074;8.436;2023-05-21T12:37:51;29.30;97.30
582;DHT22;277;50.074;8.436;2023-05-21T12:40:19;29.30;97.30
582;DHT22;277;50.074;8.436;2023-05-21T12:42:48;29.50;96.40
582;DHT22;277;50.074;8.436;2023-05-21T12:45:17;29.60;96.80
582;DHT22;277;50.074;8.436;2023-05-21T12:47:47;29.70;95.70
582;DHT22;277;50.074;8.436;2023-05-21T12:50:23;30.00;96.00
582;DHT22;277;50.074;8.436;2023-05-21T12:52:54;29.70;95.50
582;DHT22;277;50.074;8.436;2023-05-21T12:55:23;29.30;96.00
582;DHT22;277;50.074;8.436;2023-05-21T12:58:01;29.10;96.20
582;DHT22;277;50.074;8.436;2023-05-21T13:00:31;29.20;96.00
582;DHT22;277;50.074;8.436;2023-05-21T13:02:59;29.30;95.60
582;DHT22;277;50.074;8.436;2023-05-21T13:05:29;29.30;96.00
582;DHT22;277;50.074;8.436;2023-05-21T13:07:57;29.40;95.60
582;DHT22;277;50.074;8.436;2023-05-21T13:10:25;29.70;96.80
582;DHT22;277;50.074;8.436;2023-05-21T13:12:53;30.00;95.80
582;DHT22;277;50.074;8.436;2023-05-21T13:15:21;30.20;94.90
582;DHT22;277;50.074;8.436;2023-05-21T13:17:49;30.60;95.20
582;DHT22;277;50.074;8.436;2023-05-21T13:20:20;30.40;94.60
582;DHT22;277;50.074;8.436;2023-05-21T13:22:51;29.90;94.90
582;DHT22;277;50.074;8.436;2023-05-21T13:25:20;29.70;94.20
582;DHT22;277;50.074;8.436;2023-05-21T13:27:51;30.00;94.60
582;DHT22;277;50.074;8.436;2023-05-21T13:30:20;30.00;94.40
582;DHT22;277;50.074;8.436;2023-05-21T13:32:48;30.30;95.10
582;DHT22;277;50.074;8.436;2023-05-21T13:35:18;30.30;93.90
582;DHT22;277;50.074;8.436;2023-05-21T13:37:46;30.20;94.60
582;DHT22;277;50.074;8.436;2023-05-21T13:40:15;29.80;94.70
582;DHT22;277;50.074;8.436;2023-05-21T13:42:44;29.40;95.20
582;DHT22;277;50.074;8.436;2023-05-21T13:45:13;29.20;94.60
582;DHT22;277;50.074;8.436;2023-05-21T13:47:42;29.40;95.60
582;DHT22;277;50.074;8.436;2023-05-21T13:50:11;29.50;94.90
582;DHT22;277;50.074;8.436;2023-05-21T13:52:39;29.30;94.60
582;DHT22;277;50.074;8.436;2023-05-21T13:55:08;28.90;95.10
582;DHT22;277;50.074;8.436;2023-05-21T13:57:39;28.50;95.60
582;DHT22;277;50.074;8.436;2023-05-21T14:00:08;28.80;94.80
582;DHT22;277;50.074;8.436;2023-05-21T14:02:39;29.00;94.40
582;DHT22;277;50.074;8.436;2023-05-21T14:05:08;29.40;93.10
582;DHT22;277;50.074;8.436;2023-05-21T14:07:36;29.70;93.20
582;DHT22;277;50.074;8.436;2023-05-21T14:10:06;30.00;92.10
582;DHT22;277;50.074;8.436;2023-05-21T14:12:34;30.50;91.70
582;DHT22;277;50.074;8.436;2023-05-21T14:15:04;30.40;91.90
582;DHT22;277;50.074;8.436;2023-05-21T14:17:33;30.20;91.10
582;DHT22;277;50.074;8.436;2023-05-21T14:20:01;30.10;91.40
582;DHT22;277;50.074;8.436;2023-05-21T14:22:29;30.20;91.80
582;DHT22;277;50.074;8.436;2023-05-21T14:24:57;30.20;91.20
582;DHT22;277;50.074;8.436;2023-05-21T14:27:25;30.20;90.30
582;DHT22;277;50.074;8.436;2023-05-21T14:29:53;30.10;90.80
582;DHT22;277;50.074;8.436;2023-05-21T14:32:22;30.30;91.50
582;DHT22;277;50.074;8.436;2023-05-21T14:34:50;30.20;90.10
582;DHT22;277;50.074;8.436;2023-05-21T14:37:18;30.10;90.90
582;DHT22;277;50.074;8.436;2023-05-21T14:39:46;30.20;90.90
582;DHT22;277;50.074;8.436;2023-05-21T14:42:14;30.00;90.80
582;DHT22;277;50.074;8.436;2023-05-21T14:44:43;30.00;90.50
582;DHT22;277;50.074;8.436;2023-05-21T14:47:11;30.10;91.50
582;DHT22;277;50.074;8.436;2023-05-21T14:49:40;29.90;91.40
582;DHT22;277;50.074;8.436;2023-05-21T14:52:08;29.60;90.80
582;DHT22;277;50.074;8.436;2023-05-21T14:54:36;29.60;91.00
582;DHT22;277;50.074;8.436;2023-05-21T14:57:04;29.70;90.80
582;DHT22;277;50.074;8.436;2023-05-21T14:59:32;29.80;91.10
582;DHT22;277;50.074;8.436;2023-05-21T15:02:00;29.70;91.50
582;DHT22;277;50.074;8.436;2023-05-21T15:04:28;29.50;91.30
582;DHT22;277;50.074;8.436;2023-05-21T15:06:57;29.40;91.50
582;DHT22;277;50.074;8.436;2023-05-21T15:09:25;29.30;91.10
582;DHT22;277;50.074;8.436;2023-05-21T15:11:53;29.40;91.40
582;DHT22;277;50.074;8.436;2023-05-21T15:14:21;29.40;91.60
582;DHT22;277;50.074;8.436;2023-05-21T15:16:49;29.30;91.80
582;DHT22;277;50.074;8.436;2023-05-21T15:19:17;29.50;91.20
582;DHT22;277;50.074;8.436;2023-05-21T15:21:45;29.60;90.70
582;DHT22;277;50.074;8.436;2023-05-21T15:24:14;29.90;91.50
582;DHT22;277;50.074;8.436;2023-05-21T15:26:42;30.00;90.70
582;DHT22;277;50.074;8.436;2023-05-21T15:29:10;29.90;91.40
582;DHT22;277;50.074;8.436;2023-05-21T15:31:38;29.80;90.50
582;DHT22;277;50.074;8.436;2023-05-21T15:34:06;29.80;91.20
582;DHT22;277;50.074;8.436;2023-05-21T15:36:34;29.80;90.20
582;DHT22;277;50.074;8.436;2023-05-21T15:39:02;29.80;90.70
582;DHT22;277;50.074;8.436;2023-05-21T15:41:34;29.80;90.70
582;DHT22;277;50.074;8.436;2023-05-21T15:44:04;29.70;90.70
582;DHT22;277;50.074;8.436;2023-05-21T15:46:31;29.70;91.00
582;DHT22;277;50.074;8.436;2023-05-21T15:48:59;29.70;91.60
582;DHT22;277;50.074;8.436;2023-05-21T15:51:27;29.60;91.50
582;DHT22;277;50.074;8.436;2023-05-21T15:53:55;29.50;91.50
582;DHT22;277;50.074;8.436;2023-05-21T15:56:23;29.30;91.00
582;DHT22;277;50.074;8.436;2023-05-21T15:58:53;29.20;91.20
582;DHT22;277;50.074;8.436;2023-05-21T16:01:24;28.90;91.10
582;DHT22;277;50.074;8.436;2023-05-21T16:03:53;28.90;91.50
582;DHT22;277;50.074;8.436;2023-05-21T16:06:21;28.70;90.90
582;DHT22;277;50.074;8.436;2023-05-21T16:08:49;28.70;91.40
582;DHT22;277;50.074;8.436;2023-05-21T16:11:17;28.60;91.30
582;DHT22;277;50.074;8.436;2023-05-21T16:13:44;28.50;90.50
582;DHT22;277;50.074;8.436;2023-05-21T16:16:14;28.50;90.80
582;DHT22;277;50.074;8.436;2023-05-21T16:18:42;28.50;91.40
582;DHT22;277;50.074;8.436;2023-05-21T16:21:10;28.50;91.70
582;DHT22;277;50.074;8.436;2023-05-21T16:23:38;28.50;92.30
582;DHT22;277;50.074;8.436;2023-05-21T16:26:08;28.40;92.10
582;DHT22;277;50.074;8.436;2023-05-21T16:28:36;28.40;91.90
582;DHT22;277;50.074;8.436;2023-05-21T16:31:04;28.40;91.70
582;DHT22;277;50.074;8.436;2023-05-21T16:33:34;28.10;92.10
582;DHT22;277;50.074;8.436;2023-05-21T16:36:02;27.90;91.70
582;DHT22;277;50.074;8.436;2023-05-21T16:38:30;27.50;92.20
582;DHT22;277;50.074;8.436;2023-05-21T16:40:58;27.50;92.70
582;DHT22;277;50.074;8.436;2023-05-21T16:43:26;27.50;92.80
582;DHT22;277;50.074;8.436;2023-05-21T16:45:54;27.40;92.60
582;DHT22;277;50.074;8.436;2023-05-21T16:48:22;27.40;92.30
582;DHT22;277;50.074;8.436;2023-05-21T16:50:51;27.50;92.50